KBQP

Details ICAO KBQP
Name MOREHOUSE MEM
Region United States
Timezone America/Chicago (UTC-6.0)
Plans Departing 0
Arriving 0
Stats Elevation 167 ft / 51 m (AMSL)
Location 32.756090° -91.880566°
Runways 1
Magnetic Variation 0.138° E
Sunrise 2017-12-11 13:01:23 UTC / 2017-12-11 07:01:23 Local
Sunset 2017-12-11 23:03:19 UTC / 2017-12-11 17:03:19 Local
Advertisement - Login to hide

Runways

ID Width Length Bearing (true) Bearing (mag) Surface Threshold Offset Overrun Length
16 100 ft / 30 m 4,010 ft / 1,222 m 163.69° 163.55° Asphalt 0 ft / 0 m 0 ft / 0 m
34 100 ft / 30 m 4,010 ft / 1,222 m 343.69° 343.55° Asphalt 0 ft / 0 m 0 ft / 0 m

Map

Weather


0- 5 10 15 20 25 30 35+ Temperature / ° C

Clouds and Precipitation
Forecast for 2017-12-11 12:00 UTC. Updated 20 minutes ago

Ground ~20,000 ft ~40,000 ft Winds

METAR

KBQP 111135Z AUTO 25003KT 10SM CLR 05/00 A3024 RMK AO2 T00500000

TAF

Not found

Frequencies

Unicom 122.80 MHz CTAF/UNICOM
Approach 126.90 MHz MONROE APP/DEP
Warning: Do not use this data for real-world aviation or navigation. No guarantee of current accuracy is given.